createdAt,value
2023-02-09T00:01:34.573Z,80.70
2023-02-09T00:04:02.094Z,80.70
2023-02-09T00:06:29.958Z,76.80
2023-02-09T00:08:57.875Z,79.20
2023-02-09T00:11:47.654Z,75.70
2023-02-09T00:14:16.487Z,70.40
2023-02-09T00:16:45.246Z,74.10
2023-02-09T00:19:13.053Z,65.60
2023-02-09T00:21:40.129Z,63.70
2023-02-09T00:24:07.330Z,59.20
2023-02-09T00:26:34.117Z,54.80
2023-02-09T00:29:00.926Z,59.30
2023-02-09T00:31:27.836Z,60.00
2023-02-09T00:33:54.842Z,51.60
2023-02-09T00:36:21.734Z,47.90
2023-02-09T00:38:50.837Z,46.40
2023-02-09T00:41:17.815Z,43.70
2023-02-09T00:43:45.673Z,43.70
2023-02-09T00:46:14.492Z,44.50
2023-02-09T00:48:41.983Z,42.30
2023-02-09T00:51:08.780Z,43.10
2023-02-09T00:53:35.979Z,45.80
2023-02-09T00:56:02.832Z,48.30
2023-02-09T00:58:29.795Z,51.10
2023-02-09T01:00:56.802Z,50.20
2023-02-09T01:03:23.659Z,51.10
2023-02-09T01:05:50.501Z,55.70
2023-02-09T01:08:17.693Z,48.30
2023-02-09T01:10:46.810Z,48.70
2023-02-09T01:13:14.683Z,54.30
2023-02-09T01:15:42.153Z,52.60
2023-02-09T01:18:09.310Z,55.10
2023-02-09T01:20:36.530Z,51.90
2023-02-09T01:23:03.647Z,54.90
2023-02-09T01:25:30.841Z,52.90
2023-02-09T01:27:59.315Z,52.90
2023-02-09T01:30:26.671Z,51.90
2023-02-09T01:32:56.165Z,46.90
2023-02-09T01:35:23.153Z,52.80
2023-02-09T01:37:49.983Z,48.80
2023-02-09T01:40:17.152Z,51.70
2023-02-09T01:42:44.585Z,49.00
2023-02-09T01:45:24.558Z,49.20
2023-02-09T01:47:56.274Z,47.10
2023-02-09T01:50:29.430Z,54.10
2023-02-09T01:52:57.522Z,53.00
2023-02-09T01:55:26.353Z,56.60
2023-02-09T01:58:14.330Z,61.90
2023-02-09T02:00:41.237Z,56.50
2023-02-09T02:03:11.587Z,52.20
2023-02-09T02:05:40.799Z,49.90
2023-02-09T02:08:17.680Z,54.90
2023-02-09T02:10:44.775Z,51.00
2023-02-09T02:13:12.111Z,54.70
2023-02-09T02:15:57.310Z,54.20
2023-02-09T02:19:14.829Z,52.30
2023-02-09T02:21:56.497Z,50.60
2023-02-09T02:25:00.874Z,58.30
2023-02-09T02:27:36.073Z,55.20
2023-02-09T02:30:34.693Z,51.70
2023-02-09T02:33:26.192Z,51.00
2023-02-09T02:38:38.606Z,51.10
2023-02-09T02:41:17.500Z,52.40
2023-02-09T02:43:59.551Z,50.00
2023-02-09T02:46:41.582Z,60.80
2023-02-09T02:49:15.284Z,53.40
2023-02-09T02:51:43.460Z,58.90
2023-02-09T02:54:20.513Z,57.40
2023-02-09T02:56:50.672Z,59.90
2023-02-09T02:59:20.744Z,59.60
2023-02-09T03:02:21.877Z,56.40
2023-02-09T03:04:52.289Z,61.40
2023-02-09T03:07:19.151Z,54.80
2023-02-09T03:09:53.695Z,58.10
2023-02-09T03:12:47.534Z,59.30
2023-02-09T03:15:31.625Z,53.10
2023-02-09T03:17:58.540Z,57.10
2023-02-09T03:20:42.339Z,61.10
2023-02-09T03:23:14.728Z,55.30
2023-02-09T03:25:44.288Z,54.90
2023-02-09T03:28:16.801Z,52.60
2023-02-09T03:30:44.830Z,57.70
2023-02-09T03:33:26.385Z,51.50
2023-02-09T03:35:55.194Z,54.70
2023-02-09T03:38:22.281Z,56.20
2023-02-09T03:40:49.662Z,55.50
2023-02-09T03:43:16.758Z,50.40
2023-02-09T03:45:43.804Z,58.60
2023-02-09T03:48:10.860Z,60.40
2023-02-09T03:50:38.282Z,51.30
2023-02-09T03:53:06.613Z,53.70
2023-02-09T03:55:33.634Z,52.90
2023-02-09T03:58:00.399Z,52.50
2023-02-09T04:00:27.381Z,45.50
2023-02-09T04:02:54.248Z,54.00
2023-02-09T04:05:22.443Z,48.70
2023-02-09T04:07:55.669Z,48.00
2023-02-09T04:10:22.530Z,47.80
2023-02-09T04:12:50.055Z,52.80
2023-02-09T04:15:17.958Z,52.90
2023-02-09T04:17:44.836Z,50.50
2023-02-09T04:20:11.658Z,49.70
2023-02-09T04:22:39.609Z,53.70
2023-02-09T04:25:06.723Z,55.10
2023-02-09T04:27:34.551Z,49.90
2023-02-09T04:30:01.323Z,53.60
2023-02-09T04:32:28.175Z,51.00
2023-02-09T04:34:55.007Z,47.40
2023-02-09T04:37:21.776Z,48.60
2023-02-09T04:39:48.704Z,52.90
2023-02-09T04:42:15.556Z,53.00
2023-02-09T04:44:43.164Z,48.30
2023-02-09T04:47:10.031Z,51.60
2023-02-09T04:49:37.321Z,52.70
2023-02-09T04:52:04.232Z,50.70
2023-02-09T04:54:31.154Z,49.00
2023-02-09T04:57:18.123Z,52.80
2023-02-09T04:59:45.117Z,51.70
2023-02-09T05:02:11.942Z,52.50
2023-02-09T05:04:38.699Z,55.00
2023-02-09T05:07:09.794Z,52.50
2023-02-09T05:09:37.311Z,49.50
2023-02-09T05:12:04.476Z,58.80
2023-02-09T05:14:31.805Z,65.00
2023-02-09T05:16:59.270Z,53.70
2023-02-09T05:19:26.101Z,52.90
2023-02-09T05:21:52.926Z,62.90
2023-02-09T05:24:19.727Z,57.40
2023-02-09T05:26:46.522Z,59.90
2023-02-09T05:29:13.394Z,67.80
2023-02-09T05:31:40.664Z,67.60
2023-02-09T05:34:07.601Z,64.60
2023-02-09T05:36:34.638Z,59.30
2023-02-09T05:39:01.746Z,64.70
2023-02-09T05:41:47.464Z,64.90
2023-02-09T05:44:14.310Z,66.70
2023-02-09T05:46:41.423Z,61.90
2023-02-09T05:49:09.193Z,65.70
2023-02-09T05:51:36.226Z,63.10
2023-02-09T05:54:03.253Z,67.20
2023-02-09T05:56:30.397Z,66.10
2023-02-09T05:58:57.326Z,66.50
2023-02-09T06:01:24.207Z,68.10
2023-02-09T06:03:51.172Z,66.40
2023-02-09T06:06:18.008Z,68.90
2023-02-09T06:08:45.288Z,64.40
2023-02-09T06:11:14.592Z,57.40
2023-02-09T06:13:41.604Z,62.10
2023-02-09T06:16:08.785Z,72.00
2023-02-09T06:18:35.820Z,60.70
2023-02-09T06:21:03.062Z,67.20
2023-02-09T06:23:30.368Z,72.60
2023-02-09T06:25:57.185Z,67.70
2023-02-09T06:28:24.460Z,69.10
2023-02-09T06:30:52.740Z,74.50
2023-02-09T06:33:19.797Z,76.70
2023-02-09T06:35:52.296Z,74.00
2023-02-09T06:38:19.335Z,64.90
2023-02-09T06:40:47.013Z,61.90
2023-02-09T06:43:14.234Z,60.70
2023-02-09T06:45:41.289Z,67.20
2023-02-09T06:48:08.256Z,63.40
2023-02-09T06:50:35.897Z,61.30
2023-02-09T06:53:02.910Z,65.90
2023-02-09T06:55:29.919Z,71.70
2023-02-09T06:57:56.825Z,78.30
2023-02-09T07:00:23.602Z,88.50
2023-02-09T07:02:52.626Z,88.60
2023-02-09T07:05:20.601Z,80.40
2023-02-09T07:07:47.444Z,74.80
2023-02-09T07:10:15.848Z,68.80
2023-02-09T07:12:43.306Z,64.30
2023-02-09T07:15:10.957Z,54.20
2023-02-09T07:17:39.267Z,48.20
2023-02-09T07:20:08.514Z,48.70
2023-02-09T07:22:35.430Z,45.10
2023-02-09T07:25:02.277Z,40.50
2023-02-09T07:27:29.374Z,46.00
2023-02-09T07:29:56.483Z,43.90
2023-02-09T07:32:23.987Z,47.70
2023-02-09T07:34:50.808Z,42.60
2023-02-09T07:37:17.910Z,42.00
2023-02-09T07:39:44.789Z,41.50
2023-02-09T07:42:11.903Z,43.80
2023-02-09T07:44:48.864Z,43.50
2023-02-09T07:47:15.646Z,42.20
2023-02-09T07:49:42.611Z,41.00
2023-02-09T07:52:09.499Z,43.20
2023-02-09T07:54:37.022Z,42.90
2023-02-09T07:57:03.811Z,43.80
2023-02-09T07:59:30.822Z,42.30
2023-02-09T08:01:57.784Z,42.40
2023-02-09T08:04:24.578Z,41.60
2023-02-09T08:06:52.728Z,40.70
2023-02-09T08:09:19.574Z,41.00
2023-02-09T08:12:02.127Z,44.00
2023-02-09T08:14:36.079Z,43.60
2023-02-09T08:17:20.886Z,40.40
2023-02-09T08:20:15.304Z,40.00
2023-02-09T08:22:46.098Z,44.20
2023-02-09T08:25:19.092Z,39.10
2023-02-09T08:27:46.118Z,42.10
2023-02-09T08:30:14.153Z,41.90
2023-02-09T08:32:41.572Z,39.90
2023-02-09T08:35:08.462Z,40.90
2023-02-09T08:37:36.428Z,41.20
2023-02-09T08:40:03.457Z,44.20
2023-02-09T08:42:30.891Z,42.00
2023-02-09T08:44:58.711Z,42.50
2023-02-09T08:47:25.532Z,38.70
2023-02-09T08:49:52.326Z,41.90
2023-02-09T08:52:19.504Z,40.60
2023-02-09T08:54:46.519Z,43.50
2023-02-09T08:57:13.449Z,40.20
2023-02-09T08:59:40.253Z,42.20
2023-02-09T09:02:07.126Z,38.60
2023-02-09T09:04:33.995Z,43.40
2023-02-09T09:07:00.812Z,44.00
2023-02-09T09:09:27.598Z,40.00
2023-02-09T09:11:54.393Z,38.80
2023-02-09T09:14:21.750Z,41.50
2023-02-09T09:16:49.248Z,44.30
2023-02-09T09:19:16.044Z,42.60
2023-02-09T09:21:45.783Z,38.40
2023-02-09T09:24:13.441Z,41.50
2023-02-09T09:26:40.306Z,38.70
2023-02-09T09:29:07.177Z,41.60
2023-02-09T09:31:34.378Z,39.90
2023-02-09T09:34:03.381Z,35.60
2023-02-09T09:36:30.301Z,39.70
2023-02-09T09:38:57.784Z,37.70
2023-02-09T09:41:34.019Z,37.20
2023-02-09T09:44:00.922Z,40.50
2023-02-09T09:46:48.204Z,36.10
2023-02-09T09:49:23.820Z,35.50
2023-02-09T09:52:12.471Z,36.80
2023-02-09T09:54:40.211Z,34.60
2023-02-09T09:57:19.474Z,37.90
2023-02-09T09:59:46.346Z,32.90
2023-02-09T10:02:32.511Z,32.60
2023-02-09T10:05:20.799Z,33.50
2023-02-09T10:08:31.338Z,34.40
2023-02-09T10:11:35.760Z,31.90
2023-02-09T10:14:03.168Z,33.60
2023-02-09T10:16:33.916Z,35.70
2023-02-09T10:19:02.482Z,32.60
2023-02-09T10:21:32.490Z,39.10
2023-02-09T10:23:59.518Z,32.50
2023-02-09T10:26:31.704Z,33.70
2023-02-09T10:29:21.060Z,36.50
2023-02-09T10:31:54.212Z,40.80
2023-02-09T10:34:33.882Z,39.10
2023-02-09T10:37:29.080Z,35.20
2023-02-09T10:40:23.369Z,38.00
2023-02-09T10:42:55.713Z,34.90
2023-02-09T10:45:43.860Z,31.90
2023-02-09T10:48:10.864Z,30.20
2023-02-09T10:50:59.753Z,40.50
2023-02-09T10:53:33.206Z,37.90
2023-02-09T10:56:04.580Z,35.70
2023-02-09T10:58:33.584Z,34.70
2023-02-09T11:01:16.782Z,32.10
2023-02-09T11:04:19.961Z,34.00
2023-02-09T11:07:15.393Z,32.90
2023-02-09T11:09:48.354Z,32.10
2023-02-09T11:12:15.190Z,34.30
2023-02-09T11:14:46.194Z,34.20
2023-02-09T11:17:17.010Z,33.10
2023-02-09T11:19:53.317Z,38.00
2023-02-09T11:22:39.044Z,35.00
2023-02-09T11:25:24.853Z,33.40
2023-02-09T11:28:18.284Z,35.80
2023-02-09T11:31:29.983Z,31.70
2023-02-09T11:34:19.306Z,30.90
2023-02-09T11:37:16.927Z,33.20
2023-02-09T11:39:49.414Z,30.90
2023-02-09T11:42:38.679Z,31.00
2023-02-09T11:45:10.595Z,25.80
2023-02-09T11:47:46.931Z,25.80
2023-02-09T11:50:40.158Z,24.80
2023-02-09T11:53:38.169Z,22.40
2023-02-09T11:56:07.937Z,25.80
2023-02-09T11:58:53.183Z,25.60
2023-02-09T12:01:35.551Z,23.40
2023-02-09T12:04:17.753Z,29.30
2023-02-09T12:06:49.445Z,30.30
2023-02-09T12:09:25.431Z,35.20
2023-02-09T12:12:14.052Z,30.30
2023-02-09T12:14:41.218Z,28.80
2023-02-09T12:17:33.250Z,27.30
2023-02-09T12:20:00.612Z,24.00
2023-02-09T12:22:43.119Z,25.10
2023-02-09T12:25:25.021Z,19.90
2023-02-09T12:28:35.408Z,19.30
2023-02-09T12:31:08.056Z,20.90
2023-02-09T12:33:36.963Z,24.00
2023-02-09T12:36:09.988Z,23.50
2023-02-09T12:38:50.483Z,24.60
2023-02-09T12:41:21.692Z,21.60
2023-02-09T12:43:48.923Z,22.40
2023-02-09T12:46:31.277Z,19.50
2023-02-09T12:49:15.185Z,17.70
2023-02-09T12:51:54.529Z,18.00
2023-02-09T12:54:43.393Z,19.10
2023-02-09T12:57:19.496Z,23.50
2023-02-09T12:59:57.670Z,22.70
2023-02-09T13:02:49.922Z,20.60
2023-02-09T13:08:06.206Z,19.60
2023-02-09T13:10:35.832Z,20.30
2023-02-09T13:13:03.632Z,22.10
2023-02-09T13:15:43.551Z,24.80
2023-02-09T13:18:36.781Z,27.80
2023-02-09T13:24:14.368Z,28.30
2023-02-09T13:26:57.697Z,27.10
2023-02-09T13:29:29.371Z,30.80
2023-02-09T13:32:22.857Z,28.50
2023-02-09T13:35:27.318Z,26.90
2023-02-09T13:38:02.790Z,32.00
2023-02-09T13:40:31.354Z,33.50
2023-02-09T13:43:24.246Z,29.80
2023-02-09T13:45:52.909Z,31.60
2023-02-09T13:48:23.828Z,33.20
2023-02-09T13:50:51.684Z,33.00
2023-02-09T13:53:19.496Z,32.40
2023-02-09T13:55:47.793Z,32.10
2023-02-09T13:58:21.997Z,29.90
2023-02-09T14:00:52.184Z,31.50
2023-02-09T14:03:19.013Z,32.30
2023-02-09T14:06:00.506Z,30.30
2023-02-09T14:08:28.581Z,31.00
2023-02-09T14:11:01.995Z,30.60
2023-02-09T14:13:34.874Z,28.80
2023-02-09T14:16:08.272Z,30.80
2023-02-09T14:18:47.802Z,30.10
2023-02-09T14:21:22.659Z,29.00
2023-02-09T14:24:03.970Z,30.30
2023-02-09T14:26:48.318Z,29.40
2023-02-09T14:29:24.865Z,26.90
2023-02-09T14:32:00.159Z,27.00
2023-02-09T14:34:37.525Z,24.90
2023-02-09T14:37:11.113Z,24.90
2023-02-09T14:40:00.655Z,25.00
2023-02-09T14:42:28.608Z,26.00
2023-02-09T14:44:58.672Z,25.70
2023-02-09T14:47:34.869Z,24.60
2023-02-09T14:50:02.155Z,32.90
2023-02-09T14:52:32.145Z,28.10
2023-02-09T15:07:19.276Z,22.30
2023-02-09T15:09:48.477Z,24.90
2023-02-09T15:12:27.918Z,22.00
2023-02-09T15:14:58.860Z,23.00
2023-02-09T15:17:29.320Z,23.60
2023-02-09T15:19:58.136Z,21.60
2023-02-09T15:22:26.978Z,23.20
2023-02-09T15:24:57.836Z,21.70
2023-02-09T15:27:40.308Z,25.60
2023-02-09T15:30:17.329Z,23.10
2023-02-09T15:32:45.679Z,24.70
2023-02-09T15:35:18.297Z,24.70
2023-02-09T15:37:48.205Z,26.80
2023-02-09T15:40:43.961Z,26.80
2023-02-09T15:43:36.589Z,26.10
2023-02-09T15:46:23.938Z,26.60
2023-02-09T15:48:52.446Z,30.00
2023-02-09T15:51:21.380Z,29.60
2023-02-09T15:53:49.564Z,26.30
2023-02-09T15:56:19.067Z,26.90
2023-02-09T15:58:57.431Z,25.50
2023-02-09T16:01:26.665Z,24.70
2023-02-09T16:04:02.675Z,31.60
2023-02-09T16:06:38.680Z,27.90
2023-02-09T16:09:16.049Z,30.10
2023-02-09T16:11:45.014Z,26.00
2023-02-09T16:14:20.734Z,29.60
2023-02-09T16:16:49.639Z,25.80
2023-02-09T16:19:19.005Z,28.10
2023-02-09T16:21:50.142Z,25.30
2023-02-09T16:24:31.502Z,30.00
2023-02-09T16:27:04.979Z,33.80
2023-02-09T16:29:33.434Z,31.90
2023-02-09T16:32:01.721Z,28.80
2023-02-09T16:34:30.260Z,26.30
2023-02-09T16:36:58.865Z,26.30
2023-02-09T16:39:27.131Z,28.60
2023-02-09T16:41:57.135Z,26.30
2023-02-09T16:44:29.434Z,28.10
2023-02-09T16:46:57.989Z,23.20
2023-02-09T16:49:34.309Z,28.50
2023-02-09T16:52:05.740Z,26.00
2023-02-09T16:54:40.385Z,25.30
2023-02-09T16:57:13.600Z,23.40
2023-02-09T16:59:41.924Z,23.90
2023-02-09T17:02:26.094Z,22.30
2023-02-09T17:04:57.096Z,27.30
2023-02-09T17:07:33.002Z,29.10
2023-02-09T17:10:14.325Z,28.80
2023-02-09T17:12:42.522Z,27.80
2023-02-09T17:15:28.965Z,31.30
2023-02-09T17:18:02.253Z,28.40
2023-02-09T17:20:36.345Z,30.20
2023-02-09T17:23:05.183Z,25.30
2023-02-09T17:25:34.630Z,26.20
2023-02-09T17:28:03.046Z,25.10
2023-02-09T17:30:32.394Z,24.50
2023-02-09T17:33:03.219Z,24.90
2023-02-09T17:36:17.720Z,23.50
2023-02-09T17:38:28.061Z,26.10
2023-02-09T17:40:56.896Z,24.80
2023-02-09T17:43:25.464Z,26.10
2023-02-09T17:45:54.453Z,31.30
2023-02-09T17:48:23.273Z,32.40
2023-02-09T17:50:57.888Z,29.20
2023-02-09T17:53:28.527Z,29.00
2023-02-09T17:55:56.918Z,32.30
2023-02-09T17:58:25.235Z,33.00
2023-02-09T18:00:56.764Z,25.70
2023-02-09T18:03:26.148Z,25.90
2023-02-09T18:05:58.736Z,28.40
2023-02-09T18:08:27.601Z,30.20
2023-02-09T18:10:58.878Z,26.70
2023-02-09T18:13:27.437Z,25.70
2023-02-09T18:15:56.630Z,22.90
2023-02-09T18:18:24.953Z,21.90
2023-02-09T18:20:53.269Z,27.60
2023-02-09T18:23:23.214Z,30.00
2023-02-09T18:25:51.608Z,31.20
2023-02-09T18:28:20.745Z,31.60
2023-02-09T18:30:49.335Z,30.50
2023-02-09T18:33:18.416Z,28.00
2023-02-09T18:35:46.866Z,27.70
2023-02-09T18:38:16.087Z,29.10
2023-02-09T18:40:44.342Z,30.70
2023-02-09T18:43:14.946Z,29.80
2023-02-09T18:45:43.413Z,32.80
2023-02-09T18:48:12.127Z,29.60
2023-02-09T18:50:40.729Z,25.20
2023-02-09T18:53:11.014Z,27.20
2023-02-09T18:55:39.565Z,25.60
2023-02-09T18:58:11.683Z,35.30
2023-02-09T19:00:40.044Z,33.20
2023-02-09T19:03:08.579Z,38.30
2023-02-09T19:05:36.970Z,35.10
2023-02-09T19:08:07.558Z,35.90
2023-02-09T19:10:36.443Z,34.40
2023-02-09T19:13:04.820Z,33.60
2023-02-09T19:15:34.535Z,35.30
2023-02-09T19:18:04.431Z,37.80
2023-02-09T19:20:34.377Z,37.10
2023-02-09T19:23:03.995Z,35.60
2023-02-09T19:25:33.475Z,35.60
2023-02-09T19:28:01.988Z,37.00
2023-02-09T19:30:30.695Z,34.40
2023-02-09T19:33:00.287Z,37.20
2023-02-09T19:35:29.560Z,36.40
2023-02-09T19:37:58.576Z,36.70
2023-02-09T19:40:36.967Z,36.20
2023-02-09T19:43:06.351Z,34.40
2023-02-09T19:45:37.956Z,32.90
2023-02-09T19:50:37.081Z,31.80
2023-02-09T19:53:06.350Z,35.00
2023-02-09T19:55:36.549Z,31.70
2023-02-09T19:58:04.920Z,32.40
2023-02-09T20:00:34.612Z,32.40
2023-02-09T20:03:02.957Z,32.80
2023-02-09T20:05:31.986Z,31.60
2023-02-09T20:08:00.260Z,32.40
2023-02-09T20:10:28.663Z,32.70
2023-02-09T20:12:56.997Z,33.20
2023-02-09T20:15:26.786Z,33.70
2023-02-09T20:17:55.255Z,30.40
2023-02-09T20:20:24.059Z,29.60
2023-02-09T20:22:52.495Z,32.00
2023-02-09T20:25:20.961Z,37.20
2023-02-09T20:27:50.458Z,35.10
2023-02-09T20:30:19.031Z,34.60
2023-02-09T20:32:50.715Z,32.60
2023-02-09T20:35:20.106Z,33.80
2023-02-09T20:37:48.385Z,34.10
2023-02-09T20:40:17.176Z,39.40
2023-02-09T20:43:05.045Z,34.90
2023-02-09T20:45:52.386Z,32.30
2023-02-09T20:48:20.688Z,31.80
2023-02-09T20:50:49.654Z,31.20
2023-02-09T20:53:19.241Z,34.40
2023-02-09T20:55:50.641Z,36.50
2023-02-09T20:58:19.502Z,32.90
2023-02-09T21:00:48.135Z,32.30
2023-02-09T21:03:17.128Z,31.80
2023-02-09T21:08:37.722Z,37.70
2023-02-09T21:11:09.287Z,31.30
2023-02-09T21:13:41.231Z,29.80
2023-02-09T21:16:09.827Z,31.70
2023-02-09T21:18:38.902Z,32.50
2023-02-09T21:21:07.991Z,30.10
2023-02-09T21:23:36.672Z,32.20
2023-02-09T21:26:06.776Z,34.00
2023-02-09T21:28:36.403Z,28.20
2023-02-09T21:31:17.090Z,33.70
2023-02-09T21:33:45.394Z,29.50
2023-02-09T21:36:13.736Z,31.30
2023-02-09T21:38:42.268Z,31.40
2023-02-09T21:41:31.664Z,33.50
2023-02-09T21:43:59.964Z,31.90
2023-02-09T21:46:28.582Z,29.20
2023-02-09T21:48:59.828Z,32.90
2023-02-09T21:51:28.358Z,32.30
2023-02-09T21:53:56.672Z,34.40
2023-02-09T21:56:25.033Z,36.30
2023-02-09T21:58:54.410Z,32.10
2023-02-09T22:01:22.651Z,34.10
2023-02-09T22:03:57.473Z,33.50
2023-02-09T22:06:26.366Z,32.40
2023-02-09T22:08:54.580Z,31.50
2023-02-09T22:11:23.239Z,33.00
2023-02-09T22:13:51.526Z,34.80
2023-02-09T22:16:21.073Z,31.60
2023-02-09T22:18:50.056Z,31.70
2023-02-09T22:21:20.636Z,33.00
2023-02-09T22:23:49.769Z,32.10
2023-02-09T22:26:18.830Z,29.30
2023-02-09T22:28:47.376Z,32.60
2023-02-09T22:31:17.576Z,27.10
2023-02-09T22:33:45.932Z,31.20
2023-02-09T22:36:18.192Z,29.00
2023-02-09T22:38:46.588Z,29.40
2023-02-09T22:41:22.881Z,32.50
2023-02-09T22:43:52.961Z,32.80
2023-02-09T22:46:22.394Z,32.00
2023-02-09T22:48:54.912Z,31.70
2023-02-09T22:51:24.239Z,29.90
2023-02-09T22:53:52.990Z,29.70
2023-02-09T22:56:21.239Z,33.60
2023-02-09T22:58:49.806Z,32.70
2023-02-09T23:01:18.133Z,33.00
2023-02-09T23:03:46.471Z,30.40
2023-02-09T23:06:17.789Z,31.40
2023-02-09T23:08:46.599Z,33.70
2023-02-09T23:11:17.138Z,32.60
2023-02-09T23:13:45.475Z,29.40
2023-02-09T23:16:24.259Z,28.80
2023-02-09T23:18:59.938Z,30.60
2023-02-09T23:21:36.576Z,28.80
2023-02-09T23:24:06.782Z,27.60
2023-02-09T23:26:35.728Z,30.00
2023-02-09T23:29:05.842Z,29.80
2023-02-09T23:31:34.644Z,30.30
2023-02-09T23:34:02.939Z,29.30
2023-02-09T23:36:33.097Z,30.40
2023-02-09T23:39:03.229Z,26.70
2023-02-09T23:41:34.794Z,30.70
2023-02-09T23:44:04.800Z,26.80
2023-02-09T23:46:33.207Z,25.70
2023-02-09T23:49:01.740Z,29.00
2023-02-09T23:51:34.743Z,30.10
2023-02-09T23:54:04.670Z,27.80
2023-02-09T23:56:37.395Z,21.50
2023-02-09T23:59:07.768Z,26.90
